Big Glory — H9IF — position and weather

sailwx.info

Track history (hours):
 
Tides and Currents Weather Stations Pressure Air Temp Water Temp Dewpoint Dewpoint Depression Visibility Wind Speed Wind Dir Waves Ship Positions

Big Glory

Last reported at 2016-May-29 17:05 UTC. Time now 2016-May-29 23:07 UTC.
Position N 36°53' E 140°53'.

Length 190 m; draft 11.6 m.

Type: Ship. MMSI: 354285000.

Date/timePositionNaut miles runAvg speedWind from/ knotsBaromVisibWave heightAir tempDewpointWater temp
2016-May-29 17:05N 36°53' E 140°53'0 0.0
2016-May-29 10:29N 36°53' E 140°53'11 0.3
2016-May-27 21:23N 36°46' E 141°05'2 1.7
2016-May-27 20:13N 36°46' E 141°07'0 0.6
2016-May-27 19:30N 36°46' E 141°08'0 0.5
2016-May-27 18:32N 36°47' E 141°08'0 0.3
2016-May-27 17:29N 36°47' E 141°09'0 0.3
2016-May-27 16:33N 36°47' E 141°09'1 0.3
2016-May-27 14:16N 36°48' E 141°09'0 0.4
2016-May-27 13:28N 36°48' E 141°09'0 0.4
2016-May-27 12:19N 36°48' E 141°09'0 0.5
2016-May-27 11:33N 36°48' E 141°09'2 0.4
2016-May-27 05:16N 36°50' E 141°10'  
Track history (hours):
 
Tides and Currents Weather Stations Pressure Air Temp Water Temp Dewpoint Dewpoint Depression Visibility Wind Speed Wind Dir Waves Ship Positions

Big Glory

Last reported at 2016-May-29 17:05 UTC. Time now 2016-May-29 23:07 UTC.
Position N 36°53' E 140°53'.

Length 190 m; draft 11.6 m.

Type: Ship. MMSI: 354285000.

Date/timePositionNaut miles runAvg speedWind from/ knotsBaromVisibWave heightAir tempDewpointWater temp
2016-May-29 17:05N 36°53' E 140°53'0 0.0
2016-May-29 10:29N 36°53' E 140°53'11 0.3
2016-May-27 21:23N 36°46' E 141°05'2 1.7
2016-May-27 20:13N 36°46' E 141°07'0 0.6
2016-May-27 19:30N 36°46' E 141°08'0 0.5
2016-May-27 18:32N 36°47' E 141°08'0 0.3
2016-May-27 17:29N 36°47' E 141°09'0 0.3
2016-May-27 16:33N 36°47' E 141°09'1 0.3
2016-May-27 14:16N 36°48' E 141°09'0 0.4
2016-May-27 13:28N 36°48' E 141°09'0 0.4
2016-May-27 12:19N 36°48' E 141°09'0 0.5
2016-May-27 11:33N 36°48' E 141°09'2 0.4
2016-May-27 05:16N 36°50' E 141°10'  

Dump ship's entire track history